createdAt,value
2022-12-05T00:00:22.011Z,29.27
2022-12-05T00:00:58.030Z,25.40
2022-12-05T00:01:35.217Z,37.97
2022-12-05T00:02:10.088Z,29.92
2022-12-05T00:02:42.316Z,24.23
2022-12-05T00:03:14.499Z,39.58
2022-12-05T00:03:53.475Z,27.30
2022-12-05T00:04:25.785Z,24.70
2022-12-05T00:05:00.489Z,25.00
2022-12-05T00:05:32.675Z,23.83
2022-12-05T00:06:05.481Z,23.52
2022-12-05T00:06:42.287Z,40.47
2022-12-05T00:07:14.406Z,22.00
2022-12-05T00:07:46.536Z,22.30
2022-12-05T00:08:21.559Z,26.38
2022-12-05T00:08:54.339Z,22.63
2022-12-05T00:09:26.422Z,20.98
2022-12-05T00:10:01.161Z,22.98
2022-12-05T00:10:36.012Z,15.43
2022-12-05T00:11:13.298Z,17.52
2022-12-05T00:11:48.434Z,28.60
2022-12-05T00:12:21.279Z,29.20
2022-12-05T00:12:53.390Z,15.45
2022-12-05T00:13:28.234Z,33.25
2022-12-05T00:14:01.541Z,14.05
2022-12-05T00:14:33.825Z,20.58
2022-12-05T00:15:12.627Z,18.83
2022-12-05T00:15:44.751Z,19.88
2022-12-05T00:16:19.491Z,17.95
2022-12-05T00:16:54.499Z,20.80
2022-12-05T00:17:26.640Z,26.85
2022-12-05T00:17:58.724Z,27.50
2022-12-05T00:18:30.824Z,22.25
2022-12-05T00:19:10.141Z,19.33
2022-12-05T00:19:42.208Z,21.20
2022-12-05T00:20:14.395Z,15.18
2022-12-05T00:20:49.734Z,22.88
2022-12-05T00:21:24.022Z,22.23
2022-12-05T00:21:57.851Z,19.45
2022-12-05T00:22:32.529Z,23.58
2022-12-05T00:23:04.645Z,18.02
2022-12-05T00:23:36.761Z,39.67
2022-12-05T00:24:14.795Z,21.95
2022-12-05T00:24:46.940Z,25.58
2022-12-05T00:25:22.114Z,17.30
2022-12-05T00:25:54.236Z,23.08
2022-12-05T00:26:27.190Z,17.30
2022-12-05T00:27:02.186Z,23.05
2022-12-05T00:27:34.478Z,20.42
2022-12-05T00:28:06.589Z,20.52
2022-12-05T00:28:39.373Z,30.33
2022-12-05T00:29:14.230Z,26.80
2022-12-05T00:29:46.421Z,14.35
2022-12-05T00:30:18.773Z,20.05
2022-12-05T00:30:53.532Z,20.50
2022-12-05T00:31:27.522Z,17.05
2022-12-05T00:31:59.695Z,21.83
2022-12-05T00:32:35.037Z,18.00
2022-12-05T00:33:07.178Z,17.20
2022-12-05T00:33:39.875Z,18.48
2022-12-05T00:34:17.142Z,20.58
2022-12-05T00:34:49.279Z,22.85
2022-12-05T00:35:21.459Z,13.77
2022-12-05T00:35:56.152Z,25.40
2022-12-05T00:36:30.364Z,23.25
2022-12-05T00:37:02.440Z,20.67
2022-12-05T00:37:37.661Z,31.45
2022-12-05T00:38:09.782Z,25.25
2022-12-05T00:38:42.447Z,30.17
2022-12-05T00:39:17.198Z,23.40
2022-12-05T00:39:49.301Z,26.83
2022-12-05T00:40:21.355Z,17.83
2022-12-05T00:40:53.425Z,31.55
2022-12-05T00:41:30.533Z,20.92
2022-12-05T00:42:02.743Z,21.92
2022-12-05T00:42:34.822Z,26.20
2022-12-05T00:43:09.688Z,27.25
2022-12-05T00:43:41.992Z,26.92
2022-12-05T00:44:14.381Z,35.83
2022-12-05T00:44:49.057Z,17.13
2022-12-05T00:45:21.502Z,27.65
2022-12-05T00:45:53.627Z,31.65
2022-12-05T00:46:30.272Z,21.42
2022-12-05T00:47:02.565Z,17.60
2022-12-05T00:47:35.905Z,19.45
2022-12-05T00:48:10.618Z,21.65
2022-12-05T00:48:42.912Z,30.80
2022-12-05T00:49:17.576Z,20.50
2022-12-05T00:49:52.234Z,21.30
2022-12-05T00:50:24.328Z,19.27
2022-12-05T00:51:01.221Z,36.35
2022-12-05T00:51:38.477Z,18.52
2022-12-05T00:52:10.666Z,26.55
2022-12-05T00:52:42.726Z,26.15
2022-12-05T00:53:17.486Z,21.20
2022-12-05T00:53:50.419Z,25.88
2022-12-05T00:54:25.097Z,27.05
2022-12-05T00:54:57.281Z,31.50
2022-12-05T00:55:29.370Z,15.32
2022-12-05T00:56:06.390Z,20.52
2022-12-05T00:56:38.671Z,26.65
2022-12-05T00:57:13.428Z,17.50
2022-12-05T00:57:45.523Z,27.35
2022-12-05T00:58:17.598Z,19.20
2022-12-05T00:58:50.701Z,17.65
2022-12-05T00:59:25.731Z,20.08
2022-12-05T00:59:58.181Z,22.13
2022-12-05T01:00:30.591Z,18.90
2022-12-05T01:01:09.812Z,24.33
2022-12-05T01:01:43.222Z,28.15
2022-12-05T01:02:15.502Z,16.88
2022-12-05T01:02:50.240Z,17.20
2022-12-05T01:03:22.615Z,15.13
2022-12-05T01:03:56.569Z,21.50
2022-12-05T01:04:33.847Z,19.52
2022-12-05T01:05:06.954Z,25.92
2022-12-05T01:05:39.040Z,17.63
2022-12-05T01:06:14.511Z,26.42
2022-12-05T01:06:47.047Z,36.25
2022-12-05T01:07:19.546Z,21.27
2022-12-05T01:07:54.245Z,28.92
2022-12-05T01:08:27.018Z,14.25
2022-12-05T01:08:59.686Z,24.73
2022-12-05T01:09:31.789Z,22.85
2022-12-05T01:10:07.245Z,25.30
2022-12-05T01:10:39.326Z,13.95
2022-12-05T01:11:14.636Z,21.80
2022-12-05T01:11:49.860Z,27.95
2022-12-05T01:12:22.048Z,26.85
2022-12-05T01:12:54.178Z,21.98
2022-12-05T01:13:27.628Z,25.02
2022-12-05T01:14:02.766Z,19.73
2022-12-05T01:14:35.055Z,18.70
2022-12-05T01:15:09.243Z,19.98
2022-12-05T01:15:43.923Z,25.08
2022-12-05T01:16:17.106Z,28.52
2022-12-05T01:16:50.987Z,22.88
2022-12-05T01:17:25.906Z,17.45
2022-12-05T01:17:58.047Z,18.73
2022-12-05T01:18:30.805Z,18.88
2022-12-05T01:19:08.040Z,20.42
2022-12-05T01:19:42.798Z,18.95
2022-12-05T01:20:14.911Z,25.52
2022-12-05T01:20:49.611Z,20.00
2022-12-05T01:21:22.293Z,18.73
2022-12-05T01:21:55.182Z,11.45
2022-12-05T01:22:29.941Z,30.92
2022-12-05T01:23:02.037Z,18.48
2022-12-05T01:23:34.141Z,24.25
2022-12-05T01:24:09.472Z,24.02
2022-12-05T01:24:41.572Z,27.38
2022-12-05T01:25:13.649Z,26.08
2022-12-05T01:25:50.719Z,22.35
2022-12-05T01:26:24.021Z,24.25
2022-12-05T01:26:59.561Z,22.33
2022-12-05T01:27:31.789Z,29.85
2022-12-05T01:28:03.889Z,22.45
2022-12-05T01:28:36.844Z,21.67
2022-12-05T01:29:12.357Z,18.88
2022-12-05T01:29:44.502Z,14.95
2022-12-05T01:30:17.013Z,25.25
2022-12-05T01:30:50.278Z,27.50
2022-12-05T01:31:27.445Z,15.80
2022-12-05T01:31:59.633Z,19.70
2022-12-05T01:32:31.825Z,19.38
2022-12-05T01:33:06.536Z,25.58
2022-12-05T01:33:38.628Z,36.78
2022-12-05T01:34:13.210Z,30.27
2022-12-05T01:34:50.470Z,24.17
2022-12-05T01:35:22.643Z,17.45
2022-12-05T01:35:54.716Z,26.17
2022-12-05T01:36:30.504Z,24.65
2022-12-05T01:37:02.684Z,23.88
2022-12-05T01:37:34.878Z,28.30
2022-12-05T01:38:07.763Z,23.95
2022-12-05T01:38:43.505Z,23.33
2022-12-05T01:39:16.412Z,23.63
2022-12-05T01:39:49.383Z,20.27
2022-12-05T01:40:24.142Z,26.15
2022-12-05T01:41:04.075Z,31.75
2022-12-05T01:41:39.062Z,31.15
2022-12-05T01:42:15.137Z,22.27
2022-12-05T01:42:47.214Z,25.17
2022-12-05T01:43:19.277Z,26.73
2022-12-05T01:44:00.321Z,23.48
2022-12-05T01:45:04.705Z,20.77
2022-12-05T01:45:40.529Z,20.90
2022-12-05T01:46:12.780Z,21.45
2022-12-05T01:46:49.566Z,28.70
2022-12-05T01:47:24.188Z,23.35
2022-12-05T01:47:56.331Z,22.83
2022-12-05T01:48:39.115Z,18.58
2022-12-05T01:49:14.124Z,18.50
2022-12-05T01:49:49.645Z,22.15
2022-12-05T01:50:24.485Z,24.65
2022-12-05T01:50:58.543Z,23.90
2022-12-05T01:51:31.131Z,34.42
2022-12-05T01:52:10.304Z,25.63
2022-12-05T01:52:42.416Z,20.92
2022-12-05T01:53:18.519Z,13.48
2022-12-05T01:53:50.858Z,32.70
2022-12-05T01:54:23.918Z,22.48
2022-12-05T01:55:00.967Z,28.77
2022-12-05T01:55:38.130Z,23.67
2022-12-05T01:56:10.410Z,25.40
2022-12-05T01:56:46.501Z,28.02
2022-12-05T01:57:21.447Z,27.08
2022-12-05T01:57:53.780Z,17.77
2022-12-05T01:58:35.517Z,26.58
2022-12-05T01:59:09.559Z,20.63
2022-12-05T01:59:47.519Z,23.60
2022-12-05T02:00:24.071Z,18.50
2022-12-05T02:00:56.176Z,29.65
2022-12-05T02:01:28.551Z,33.97
2022-12-05T02:02:03.921Z,31.73
2022-12-05T02:02:36.243Z,23.80
2022-12-05T02:03:15.458Z,31.33
2022-12-05T02:03:50.761Z,21.38
2022-12-05T02:04:23.251Z,30.75
2022-12-05T02:05:06.206Z,24.08
2022-12-05T02:05:38.722Z,21.83
2022-12-05T02:06:13.317Z,24.13
2022-12-05T02:06:48.161Z,25.48
2022-12-05T02:07:20.314Z,26.27
2022-12-05T02:07:53.407Z,23.83
2022-12-05T02:08:31.554Z,25.30
2022-12-05T02:09:04.550Z,30.10
2022-12-05T02:09:36.730Z,33.92
2022-12-05T02:10:10.001Z,23.42
2022-12-05T02:10:48.465Z,26.73
2022-12-05T02:11:21.399Z,20.63
2022-12-05T02:11:57.833Z,21.50
2022-12-05T02:12:32.720Z,22.38
2022-12-05T02:13:18.764Z,24.00
2022-12-05T02:14:13.722Z,20.30
2022-12-05T02:14:58.928Z,44.25
2022-12-05T02:15:40.745Z,14.77
2022-12-05T02:16:27.833Z,26.80
2022-12-05T02:17:09.987Z,25.33
2022-12-05T02:17:59.834Z,20.73
2022-12-05T02:18:45.974Z,23.90
2022-12-05T02:19:45.272Z,18.40
2022-12-05T02:20:36.250Z,15.77
2022-12-05T02:21:41.193Z,24.63
2022-12-05T02:22:33.112Z,18.45
2022-12-05T02:23:55.093Z,27.00
2022-12-05T02:24:54.167Z,41.88
2022-12-05T02:26:00.812Z,23.05
2022-12-05T02:27:00.619Z,21.25
2022-12-05T02:28:00.149Z,33.15
2022-12-05T02:28:57.553Z,23.15
2022-12-05T02:30:13.509Z,22.58
2022-12-05T02:30:54.909Z,21.83
2022-12-05T02:31:35.100Z,20.88
2022-12-05T02:32:16.348Z,20.00
2022-12-05T02:32:56.218Z,30.08
2022-12-05T02:33:39.742Z,29.85
2022-12-05T02:34:21.093Z,25.73
2022-12-05T02:35:00.131Z,25.77
2022-12-05T02:35:43.957Z,25.60
2022-12-05T02:36:22.295Z,24.45
2022-12-05T02:36:59.995Z,29.23
2022-12-05T02:37:44.768Z,22.05
2022-12-05T02:38:25.139Z,20.33
2022-12-05T02:39:44.625Z,17.55
2022-12-05T02:40:24.890Z,20.42
2022-12-05T02:41:06.799Z,27.77
2022-12-05T02:41:48.400Z,34.60
2022-12-05T02:42:28.971Z,20.35
2022-12-05T02:43:08.266Z,28.00
2022-12-05T02:43:46.323Z,29.58
2022-12-05T02:44:23.521Z,16.23
2022-12-05T02:45:00.437Z,19.75
2022-12-05T02:45:38.511Z,16.98
2022-12-05T02:46:17.951Z,13.43
2022-12-05T02:46:54.794Z,25.40
2022-12-05T02:47:30.805Z,22.88
2022-12-05T02:48:04.103Z,30.70
2022-12-05T02:48:40.173Z,21.55
2022-12-05T02:49:16.911Z,22.90
2022-12-05T02:49:52.560Z,21.60
2022-12-05T02:50:32.104Z,18.50
2022-12-05T02:51:07.645Z,27.02
2022-12-05T02:51:43.559Z,23.35
2022-12-05T02:52:20.612Z,22.63
2022-12-05T02:52:56.841Z,18.30
2022-12-05T02:53:31.476Z,21.17
2022-12-05T02:54:11.737Z,25.83
2022-12-05T02:54:48.629Z,18.60
2022-12-05T02:55:22.361Z,16.27
2022-12-05T02:55:58.001Z,23.40
2022-12-05T02:56:33.177Z,21.98
2022-12-05T02:57:06.308Z,18.05
2022-12-05T02:57:43.615Z,25.00
2022-12-05T02:58:22.102Z,23.77
2022-12-05T02:58:56.126Z,23.30
2022-12-05T02:59:31.333Z,20.38
2022-12-05T03:00:03.976Z,22.92
2022-12-05T03:00:36.856Z,26.38
2022-12-05T03:01:12.934Z,24.17
2022-12-05T03:01:49.852Z,19.08
2022-12-05T03:02:27.529Z,22.65
2022-12-05T03:03:00.808Z,16.20
2022-12-05T03:03:37.276Z,20.08
2022-12-05T03:04:13.827Z,22.27
2022-12-05T03:04:46.083Z,18.30
2022-12-05T03:05:25.804Z,21.25
2022-12-05T03:06:05.009Z,13.80
2022-12-05T03:06:45.013Z,20.17
2022-12-05T03:07:20.142Z,24.67
2022-12-05T03:07:55.557Z,27.08
2022-12-05T03:08:37.809Z,28.17
2022-12-05T03:09:13.864Z,22.67
2022-12-05T03:09:51.560Z,18.10
2022-12-05T03:10:30.876Z,17.95
2022-12-05T03:11:04.314Z,20.58
2022-12-05T03:11:43.840Z,19.17
2022-12-05T03:12:18.888Z,19.90
2022-12-05T03:12:56.799Z,25.42
2022-12-05T03:13:38.457Z,22.08
2022-12-05T03:14:15.926Z,27.33
2022-12-05T03:14:52.457Z,31.27
2022-12-05T03:15:32.521Z,26.95
2022-12-05T03:16:11.929Z,14.32
2022-12-05T03:16:54.111Z,22.25
2022-12-05T03:17:33.531Z,23.92
2022-12-05T03:18:10.074Z,16.33
2022-12-05T03:18:49.975Z,23.98
2022-12-05T03:19:27.039Z,30.88
2022-12-05T03:20:05.242Z,22.30
2022-12-05T03:20:44.768Z,24.35
2022-12-05T03:21:27.831Z,24.98
2022-12-05T03:22:02.283Z,22.85
2022-12-05T03:22:43.626Z,15.77
2022-12-05T03:23:20.856Z,31.33
2022-12-05T03:23:57.253Z,22.33
2022-12-05T03:24:34.602Z,32.28
2022-12-05T03:25:08.593Z,18.10
2022-12-05T03:25:51.353Z,17.60
2022-12-05T03:26:39.550Z,20.33
2022-12-05T03:27:21.178Z,23.58
2022-12-05T03:27:59.021Z,17.20
2022-12-05T03:28:40.420Z,24.45
2022-12-05T03:29:28.488Z,20.83
2022-12-05T03:30:07.471Z,19.90
2022-12-05T03:30:39.890Z,19.77
2022-12-05T03:31:17.720Z,18.73
2022-12-05T03:32:04.865Z,30.30
2022-12-05T03:32:42.079Z,26.52
2022-12-05T03:33:18.513Z,24.15
2022-12-05T03:34:00.123Z,18.38
2022-12-05T03:34:43.174Z,29.40
2022-12-05T03:35:23.592Z,29.65
2022-12-05T03:36:40.855Z,21.55
2022-12-05T03:37:24.504Z,27.90
2022-12-05T03:38:03.520Z,26.33
2022-12-05T03:38:41.894Z,20.10
2022-12-05T03:39:24.929Z,22.35
2022-12-05T03:40:09.509Z,23.95
2022-12-05T03:40:45.477Z,17.00
2022-12-05T03:41:25.821Z,16.02
2022-12-05T03:42:07.746Z,46.72
2022-12-05T03:42:52.190Z,31.30
2022-12-05T03:43:32.362Z,25.33
2022-12-05T03:44:10.797Z,19.77
2022-12-05T03:44:52.788Z,29.33
2022-12-05T03:45:31.729Z,29.45
2022-12-05T03:46:06.824Z,37.45
2022-12-05T03:46:46.806Z,36.40
2022-12-05T03:47:27.487Z,33.50
2022-12-05T03:48:12.650Z,21.45
2022-12-05T03:48:52.705Z,26.38
2022-12-05T03:49:34.103Z,18.15
2022-12-05T03:50:15.353Z,32.22
2022-12-05T03:50:51.560Z,31.30
2022-12-05T03:51:28.371Z,12.68
2022-12-05T03:52:10.032Z,25.48
2022-12-05T03:53:18.167Z,32.22
2022-12-05T03:53:42.909Z,24.58
2022-12-05T03:54:24.011Z,22.25
2022-12-05T03:55:01.232Z,29.75
2022-12-05T03:55:36.135Z,22.55
2022-12-05T03:56:15.390Z,27.27
2022-12-05T03:56:53.038Z,37.05
2022-12-05T03:57:29.700Z,17.63
2022-12-05T03:58:09.575Z,28.60
2022-12-05T03:58:48.325Z,31.45
2022-12-05T03:59:27.386Z,24.25
2022-12-05T04:00:06.277Z,23.48
2022-12-05T04:00:43.498Z,57.65
2022-12-05T04:01:18.661Z,29.17
2022-12-05T04:01:55.912Z,36.03
2022-12-05T04:02:36.374Z,22.45
2022-12-05T04:03:52.041Z,27.70
2022-12-05T04:04:29.191Z,23.20
2022-12-05T04:05:07.254Z,30.33
2022-12-05T04:05:46.462Z,20.20
2022-12-05T04:06:25.387Z,20.65
2022-12-05T04:07:03.538Z,26.90
2022-12-05T04:07:39.759Z,14.60
2022-12-05T04:08:19.537Z,21.10
2022-12-05T04:08:57.615Z,23.85
2022-12-05T04:09:35.379Z,24.98
2022-12-05T04:10:14.796Z,32.42
2022-12-05T04:10:50.458Z,31.63
2022-12-05T04:11:25.537Z,25.35
2022-12-05T04:12:04.417Z,22.10
2022-12-05T04:12:39.847Z,26.35
2022-12-05T04:13:17.971Z,19.08
2022-12-05T04:13:55.804Z,27.92
2022-12-05T04:14:34.220Z,31.80
2022-12-05T04:15:13.646Z,22.40
2022-12-05T04:16:06.524Z,25.85
2022-12-05T04:16:58.541Z,21.52
2022-12-05T04:17:40.058Z,27.48
2022-12-05T04:18:12.934Z,23.40
2022-12-05T04:18:52.085Z,26.45
2022-12-05T04:19:51.694Z,22.40
2022-12-05T04:20:46.315Z,29.38
2022-12-05T04:21:35.863Z,43.33
2022-12-05T04:22:08.003Z,26.73
2022-12-05T04:22:41.354Z,18.73
2022-12-05T04:23:17.045Z,25.95
2022-12-05T04:24:09.498Z,22.73
2022-12-05T04:24:56.959Z,26.67
2022-12-05T04:25:36.597Z,33.83
2022-12-05T04:26:19.240Z,23.10
2022-12-05T04:27:10.854Z,21.52
2022-12-05T04:27:53.608Z,26.55
2022-12-05T04:28:32.809Z,21.98
2022-12-05T04:29:11.991Z,26.20
2022-12-05T04:29:55.947Z,32.90
2022-12-05T04:30:33.804Z,31.13
2022-12-05T04:31:11.015Z,35.72
2022-12-05T04:31:49.785Z,26.90
2022-12-05T04:32:27.953Z,38.70
2022-12-05T04:33:11.071Z,22.27
2022-12-05T04:33:46.514Z,28.20
2022-12-05T04:34:21.227Z,24.77
2022-12-05T04:35:00.573Z,21.42
2022-12-05T04:35:37.931Z,35.97
2022-12-05T04:36:14.014Z,28.33
2022-12-05T04:36:55.218Z,35.28
2022-12-05T04:37:31.877Z,30.02
2022-12-05T04:38:13.009Z,31.80
2022-12-05T04:38:50.852Z,42.78
2022-12-05T04:39:27.586Z,30.58
2022-12-05T04:40:07.203Z,24.42
2022-12-05T04:40:44.828Z,31.63
2022-12-05T04:41:22.759Z,30.50
2022-12-05T04:42:01.828Z,28.25
2022-12-05T04:42:36.925Z,29.88
2022-12-05T04:43:11.272Z,46.92
2022-12-05T04:43:48.430Z,59.70
2022-12-05T04:44:25.624Z,47.08
2022-12-05T04:45:03.330Z,50.47
2022-12-05T04:45:40.944Z,71.55
2022-12-05T04:46:15.963Z,45.53
2022-12-05T04:46:50.833Z,46.50
2022-12-05T04:47:31.003Z,36.97
2022-12-05T04:48:11.730Z,32.60
2022-12-05T04:48:51.774Z,22.33
2022-12-05T04:49:28.022Z,32.22
2022-12-05T04:50:01.244Z,29.50
2022-12-05T04:50:37.633Z,42.25
2022-12-05T04:51:16.404Z,26.70
2022-12-05T04:51:52.768Z,38.00
2022-12-05T04:52:28.552Z,50.55
2022-12-05T04:53:02.733Z,36.42
2022-12-05T04:53:35.973Z,22.70
2022-12-05T04:54:20.870Z,45.70
2022-12-05T04:55:00.967Z,48.30
2022-12-05T04:55:39.737Z,36.03
2022-12-05T04:56:15.923Z,36.20
2022-12-05T04:56:50.428Z,44.75
2022-12-05T04:57:30.521Z,44.80
2022-12-05T04:58:07.942Z,34.20
2022-12-05T04:58:40.119Z,29.73
2022-12-05T04:59:15.132Z,71.13
2022-12-05T04:59:47.604Z,71.13
2022-12-05T05:00:19.930Z,73.28
2022-12-05T05:01:02.290Z,56.47
2022-12-05T05:01:39.143Z,37.58
2022-12-05T05:02:14.931Z,29.75
2022-12-05T05:02:54.822Z,34.30
2022-12-05T05:03:36.108Z,46.60
2022-12-05T05:04:15.622Z,29.42
2022-12-05T05:04:51.155Z,41.22
2022-12-05T05:05:23.931Z,35.08
2022-12-05T05:06:00.315Z,39.17
2022-12-05T05:06:32.481Z,29.65
2022-12-05T05:07:07.441Z,46.70
2022-12-05T05:07:47.427Z,46.35
2022-12-05T05:08:22.634Z,53.22
2022-12-05T05:08:56.760Z,48.25
2022-12-05T05:09:31.506Z,53.03
2022-12-05T05:10:04.001Z,79.95
2022-12-05T05:10:41.856Z,49.90
2022-12-05T05:11:19.157Z,54.97
2022-12-05T05:11:51.259Z,82.50
2022-12-05T05:12:25.485Z,74.47
2022-12-05T05:13:00.225Z,69.03
2022-12-05T05:13:32.409Z,79.93
2022-12-05T05:14:07.933Z,63.03
2022-12-05T05:14:40.086Z,56.15
2022-12-05T05:15:12.365Z,63.20
2022-12-05T05:15:47.216Z,78.50
2022-12-05T05:16:21.712Z,54.15
2022-12-05T05:16:53.844Z,75.93
2022-12-05T05:17:28.560Z,44.88
2022-12-05T05:18:00.717Z,106.47
2022-12-05T05:18:35.421Z,70.93
2022-12-05T05:19:12.002Z,73.07
2022-12-05T05:19:44.065Z,70.78
2022-12-05T05:20:25.322Z,91.35
2022-12-05T05:21:00.097Z,82.95
2022-12-05T05:21:34.649Z,110.63
2022-12-05T05:22:06.768Z,81.40
2022-12-05T05:22:41.435Z,76.32
2022-12-05T05:23:13.832Z,115.75
2022-12-05T05:23:48.679Z,99.18
2022-12-05T05:24:21.939Z,91.10
2022-12-05T05:24:54.020Z,80.20
2022-12-05T05:25:29.338Z,75.65
2022-12-05T05:26:01.465Z,70.00
2022-12-05T05:26:36.347Z,68.82
2022-12-05T05:27:11.081Z,105.53
2022-12-05T05:27:43.193Z,121.72
2022-12-05T05:28:15.341Z,128.40
2022-12-05T05:28:50.947Z,96.00
2022-12-05T05:29:23.094Z,82.55
2022-12-05T05:29:55.309Z,117.28
2022-12-05T05:30:30.268Z,99.90
2022-12-05T05:31:03.615Z,82.15
2022-12-05T05:31:37.042Z,101.65
2022-12-05T05:32:12.034Z,86.75
2022-12-05T05:32:44.145Z,116.30
2022-12-05T05:33:16.529Z,132.13
2022-12-05T05:33:55.247Z,134.88
2022-12-05T05:34:28.837Z,161.10
2022-12-05T05:35:00.972Z,131.05
2022-12-05T05:35:38.942Z,114.43
2022-12-05T05:36:13.502Z,130.02
2022-12-05T05:36:45.581Z,173.02
2022-12-05T05:37:20.293Z,135.02
2022-12-05T05:37:52.660Z,172.65
2022-12-05T05:38:24.776Z,141.57
2022-12-05T05:39:00.992Z,153.10
2022-12-05T05:39:33.110Z,130.00
2022-12-05T05:40:10.987Z,173.48
2022-12-05T05:40:46.046Z,145.23
2022-12-05T05:41:20.088Z,146.65
2022-12-05T05:41:54.757Z,126.07
2022-12-05T05:42:26.876Z,115.03
2022-12-05T05:42:59.054Z,180.00
2022-12-05T05:43:33.811Z,159.75
2022-12-05T05:44:06.189Z,108.20
2022-12-05T05:44:38.271Z,193.57
2022-12-05T05:45:14.417Z,148.93
2022-12-05T05:45:46.619Z,142.70
2022-12-05T05:46:20.965Z,148.57
2022-12-05T05:46:55.738Z,169.25
2022-12-05T05:47:28.071Z,167.45
2022-12-05T05:48:00.181Z,145.93
2022-12-05T05:48:34.938Z,172.43
2022-12-05T05:49:10.721Z,174.10
2022-12-05T05:49:42.840Z,140.60
2022-12-05T05:50:21.467Z,147.30
2022-12-05T05:50:54.162Z,150.23
2022-12-05T05:51:28.834Z,142.57
2022-12-05T05:52:03.585Z,124.18
2022-12-05T05:52:36.816Z,123.53
2022-12-05T05:53:08.893Z,128.63
2022-12-05T05:53:43.820Z,142.23
2022-12-05T05:54:15.915Z,154.77
2022-12-05T05:54:47.992Z,125.55
2022-12-05T05:55:23.050Z,133.38
2022-12-05T05:55:55.254Z,111.50
2022-12-05T05:56:27.953Z,140.45
2022-12-05T05:57:02.637Z,71.80
2022-12-05T05:57:35.056Z,108.65
2022-12-05T05:58:07.253Z,108.15
2022-12-05T05:58:42.134Z,92.85
2022-12-05T05:59:14.221Z,132.10
2022-12-05T05:59:49.137Z,105.53
2022-12-05T06:00:21.694Z,156.13
2022-12-05T06:00:56.459Z,92.75
2022-12-05T06:01:29.652Z,121.93
2022-12-05T06:02:01.765Z,154.93
2022-12-05T06:02:37.572Z,118.90
2022-12-05T06:03:10.107Z,116.25
2022-12-05T06:03:43.311Z,105.07
2022-12-05T06:04:20.853Z,154.15
2022-12-05T06:04:53.041Z,131.75
2022-12-05T06:05:25.221Z,157.45
2022-12-05T06:06:00.935Z,182.02
2022-12-05T06:06:33.088Z,169.48
2022-12-05T06:07:05.184Z,138.43
2022-12-05T06:07:39.951Z,170.15
2022-12-05T06:08:12.136Z,151.93
2022-12-05T06:08:45.087Z,144.75
2022-12-05T06:09:20.353Z,154.82
2022-12-05T06:09:52.506Z,185.48
2022-12-05T06:10:24.667Z,134.48
2022-12-05T06:10:59.403Z,139.15
2022-12-05T06:11:31.504Z,175.25
2022-12-05T06:12:03.916Z,170.32
2022-12-05T06:12:38.593Z,135.30
2022-12-05T06:13:10.655Z,170.32
2022-12-05T06:13:43.404Z,158.57
2022-12-05T06:14:18.224Z,149.57
2022-12-05T06:14:50.726Z,127.90
2022-12-05T06:15:25.580Z,147.02
2022-12-05T06:15:57.725Z,135.27
2022-12-05T06:16:31.204Z,166.65
2022-12-05T06:17:05.953Z,126.43
2022-12-05T06:17:38.117Z,167.75
2022-12-05T06:18:10.191Z,183.70
2022-12-05T06:18:45.038Z,180.48
2022-12-05T06:19:19.739Z,151.95
2022-12-05T06:19:51.867Z,166.43
2022-12-05T06:20:26.532Z,134.43
2022-12-05T06:20:59.057Z,155.70
2022-12-05T06:21:31.121Z,180.88
2022-12-05T06:22:05.842Z,190.20
2022-12-05T06:22:38.050Z,172.93
2022-12-05T06:23:12.726Z,192.50
2022-12-05T06:23:45.304Z,185.10
2022-12-05T06:24:17.981Z,182.93
2022-12-05T06:24:53.003Z,150.32
2022-12-05T06:25:25.153Z,171.50
2022-12-05T06:25:57.634Z,169.57
2022-12-05T06:26:32.369Z,163.80
2022-12-05T06:27:04.705Z,148.57
2022-12-05T06:27:37.160Z,172.88
2022-12-05T06:28:09.244Z,111.18
2022-12-05T06:28:44.572Z,137.45
2022-12-05T06:29:16.739Z,150.77
2022-12-05T06:29:51.479Z,134.50
2022-12-05T06:30:23.683Z,112.82
2022-12-05T06:30:58.404Z,142.77
2022-12-05T06:31:32.025Z,144.48
2022-12-05T06:32:04.834Z,164.18
2022-12-05T06:32:39.655Z,173.48
2022-12-05T06:33:12.564Z,177.38
2022-12-05T06:33:45.095Z,126.13
2022-12-05T06:34:22.364Z,105.25
2022-12-05T06:34:54.485Z,120.78
2022-12-05T06:35:29.230Z,135.98
2022-12-05T06:36:06.965Z,146.57
2022-12-05T06:36:39.244Z,140.25
2022-12-05T06:37:14.201Z,155.50
2022-12-05T06:37:46.565Z,128.77
2022-12-05T06:38:18.675Z,172.73
2022-12-05T06:38:53.346Z,190.15
2022-12-05T06:39:25.612Z,160.48
2022-12-05T06:39:57.854Z,139.95
2022-12-05T06:40:33.054Z,167.48
2022-12-05T06:41:05.951Z,159.23
2022-12-05T06:41:38.086Z,170.25
2022-12-05T06:42:12.774Z,166.05
2022-12-05T06:42:44.849Z,132.02
2022-12-05T06:43:17.005Z,106.38
2022-12-05T06:43:51.690Z,119.88
2022-12-05T06:44:26.993Z,158.40
2022-12-05T06:45:01.687Z,169.20
2022-12-05T06:45:33.961Z,201.02
2022-12-05T06:46:07.663Z,183.18
2022-12-05T06:46:42.450Z,206.27
2022-12-05T06:47:14.505Z,188.52
2022-12-05T06:47:46.633Z,174.18
2022-12-05T06:48:21.432Z,187.55
2022-12-05T06:48:54.114Z,200.25
2022-12-05T06:49:36.309Z,203.27
2022-12-05T06:50:13.474Z,178.48
2022-12-05T06:50:49.887Z,204.20
2022-12-05T06:51:22.087Z,151.48
2022-12-05T06:51:56.930Z,164.02
2022-12-05T06:52:29.015Z,175.90
2022-12-05T06:53:01.091Z,177.88
2022-12-05T06:53:35.950Z,177.95
2022-12-05T06:54:08.056Z,181.50
2022-12-05T06:54:40.166Z,154.82
2022-12-05T06:55:14.903Z,163.43
2022-12-05T06:55:56.360Z,139.85
2022-12-05T06:56:31.069Z,151.45
2022-12-05T06:57:03.230Z,193.35
2022-12-05T06:57:35.377Z,164.95
2022-12-05T06:58:10.053Z,189.23
2022-12-05T06:58:44.929Z,153.48
2022-12-05T06:59:19.890Z,162.98
2022-12-05T06:59:52.067Z,185.23
2022-12-05T07:00:39.484Z,173.07
2022-12-05T07:01:28.538Z,141.63
2022-12-05T07:02:00.940Z,131.23
2022-12-05T07:02:33.108Z,140.40
2022-12-05T07:03:07.892Z,150.27
2022-12-05T07:03:40.550Z,131.05
2022-12-05T07:04:16.959Z,167.20
2022-12-05T07:04:51.643Z,139.43
2022-12-05T07:05:23.883Z,138.82
2022-12-05T07:05:58.534Z,151.68
2022-12-05T07:06:30.703Z,136.80
2022-12-05T07:07:05.487Z,136.40
2022-12-05T07:07:37.994Z,172.52
2022-12-05T07:08:10.223Z,121.78
2022-12-05T07:08:42.727Z,188.40
2022-12-05T07:09:18.016Z,179.52
2022-12-05T07:09:53.949Z,149.35
2022-12-05T07:10:26.013Z,162.88
2022-12-05T07:10:58.408Z,156.80
2022-12-05T07:11:33.144Z,130.40
2022-12-05T07:12:05.839Z,174.43
2022-12-05T07:12:38.038Z,154.90
2022-12-05T07:13:15.571Z,135.02
2022-12-05T07:13:47.951Z,131.23
2022-12-05T07:14:46.525Z,126.25
2022-12-05T07:15:14.820Z,160.02
2022-12-05T07:15:47.766Z,109.22
2022-12-05T07:16:22.552Z,140.25
2022-12-05T07:16:54.776Z,142.23
2022-12-05T07:17:29.743Z,155.05
2022-12-05T07:18:01.822Z,133.27
2022-12-05T07:18:34.262Z,157.57
2022-12-05T07:19:08.986Z,156.57
2022-12-05T07:19:41.087Z,148.43
2022-12-05T07:20:17.961Z,108.95
2022-12-05T07:21:15.168Z,144.57
2022-12-05T07:21:48.250Z,116.43
2022-12-05T07:22:24.490Z,138.43
2022-12-05T07:22:56.632Z,142.32
2022-12-05T07:23:29.003Z,145.70
2022-12-05T07:24:03.715Z,130.77
2022-12-05T07:24:35.804Z,152.63
2022-12-05T07:25:11.305Z,148.32
2022-12-05T07:25:43.491Z,102.90
2022-12-05T07:26:17.739Z,160.63
2022-12-05T07:26:52.531Z,124.47
2022-12-05T07:27:27.607Z,167.00
2022-12-05T07:28:00.182Z,186.63
2022-12-05T07:28:34.940Z,143.73
2022-12-05T07:29:07.066Z,159.85
2022-12-05T07:29:41.764Z,129.98
2022-12-05T07:30:14.513Z,76.15
2022-12-05T07:30:46.607Z,105.72
2022-12-05T07:31:26.115Z,135.30
2022-12-05T07:31:58.266Z,88.82
2022-12-05T07:32:32.720Z,93.97
2022-12-05T07:33:07.448Z,117.60
2022-12-05T07:33:39.821Z,132.52
2022-12-05T07:34:12.082Z,124.68
2022-12-05T07:34:49.736Z,151.73
2022-12-05T07:35:28.306Z,123.75
2022-12-05T07:36:01.055Z,123.53
2022-12-05T07:36:35.756Z,110.50
2022-12-05T07:37:08.289Z,79.95
2022-12-05T07:37:40.518Z,96.97
2022-12-05T07:38:15.197Z,89.82
2022-12-05T07:38:47.704Z,93.82
2022-12-05T07:39:19.896Z,89.35
2022-12-05T07:39:55.131Z,76.10
2022-12-05T07:40:27.488Z,77.57
2022-12-05T07:41:02.218Z,81.35
2022-12-05T07:41:35.165Z,88.20
2022-12-05T07:42:14.639Z,67.93
2022-12-05T07:42:48.362Z,72.68